KD8GIJ-3 Weather Reports


time (UTC)temp
F
wind
direction
speed
knots
gust
knots
rain 1hr
in
rain 24hr
in
rain mn
in
humidity
%
barometer
mb
20260510093858 67 191 1.7 4.3 0.00 0.00 0.00 63 1008.1
20260510092958 67 191 1.7 4.3 0.00 0.00 0.00 63 1007.9
20260510092058 67 191 1.7 4.3 0.00 0.00 0.00 63 1007.8
20260510091158 67 191 1.7 4.3 0.00 0.00 0.00 63 1007.8
20260510090258 67 191 1.7 4.3 0.00 0.00 0.00 63 1007.7
20260510085358 67 191 1.7 4.3 0.00 0.00 0.00 63 1007.9
20260510084458 67 191 1.7 4.3 0.00 0.00 0.00 63 1007.8
20260510083558 67 191 1.7 4.3 0.00 0.00 0.00 63 1007.7
20260510082658 67 191 1.7 4.3 0.00 0.00 0.00 63 1007.9
20260510081758 67 191 1.7 4.3 0.00 0.00 0.00 63 1007.8
20260510080858 67 191 1.7 4.3 0.00 0.00 0.00 63 1007.8
20260510075958 67 191 1.7 4.3 0.00 0.00 0.00 63 1007.8
20260510075058 67 191 1.7 4.3 0.00 0.00 0.00 63 1007.7
20260510074158 67 191 1.7 4.3 0.00 0.00 0.00 63 1007.6
20260510073258 67 191 1.7 4.3 0.00 0.00 0.00 63 1007.6
20260510072358 67 191 1.7 4.3 0.00 0.00 0.00 63 1007.8
20260510071458 67 191 1.7 4.3 0.00 0.00 0.00 63 1007.8
20260510070558 67 191 1.7 4.3 0.00 0.00 0.00 63 1007.7
20260510065658 67 191 1.7 4.3 0.00 0.00 0.00 63 1007.4
20260510064758 67 191 1.7 4.3 0.00 0.00 0.00 63 1007.3
20260510063858 67 191 1.7 4.3 0.00 0.00 0.00 63 1007.4
20260510062958 67 191 1.7 4.3 0.00 0.00 0.00 63 1007.4
20260510062058 67 191 1.7 4.3 0.00 0.00 0.00 63 1007.4
20260510061158 67 191 1.7 4.3 0.00 0.00 0.00 63 1007.3
20260510060258 67 191 1.7 4.3 0.00 0.00 0.00 63 1007.3
20260510055358 67 191 1.7 4.3 0.00 0.00 0.00 63 1007.2
20260510054458 67 191 1.7 4.3 0.00 0.00 0.00 63 1007.2
20260510053558 67 191 1.7 4.3 0.00 0.00 0.00 63 1007.2
20260510052658 67 191 1.7 4.3 0.00 0.00 0.00 63 1007.3
20260510050858 67 191 1.7 4.3 0.00 0.00 0.00 63 1007.2
20260510045058 67 191 1.7 4.3 0.00 0.00 0.00 63 1007.1
20260510044158 67 191 1.7 4.3 0.00 0.00 0.00 63 1007.1
20260510043258 67 191 1.7 4.3 0.00 0.00 0.00 63 1007.1
20260510042358 67 191 1.7 4.3 0.00 0.00 0.00 63 1007.0
20260510041458 67 191 1.7 4.3 0.00 0.00 0.00 63 1007.0
20260510040558 67 191 1.7 4.3 0.00 0.00 0.00 63 1007.0
20260510035658 67 191 1.7 4.3 0.00 0.00 0.00 63 1006.9
20260510034757 67 191 1.7 4.3 0.00 0.00 0.00 63 1007.0
20260510033858 67 191 1.7 4.3 0.00 0.00 0.00 63 1007.0
20260510032958 67 191 1.7 4.3 0.00 0.00 0.00 63 1007.0
20260510032058 67 191 1.7 4.3 0.00 0.00 0.00 63 1007.1
20260510031158 67 191 1.7 4.3 0.00 0.00 0.00 63 1007.4
20260510030258 67 191 1.7 4.3 0.00 0.00 0.00 63 1007.0
20260510024458 67 191 1.7 4.3 0.00 0.00 0.00 63 1006.5
20260510023558 67 191 1.7 4.3 0.00 0.00 0.00 63 1006.4
20260510022658 67 191 1.7 4.3 0.00 0.00 0.00 63 1006.2
20260510021757 67 191 1.7 4.3 0.00 0.00 0.00 63 1006.2
20260510020858 67 191 1.7 4.3 0.00 0.00 0.00 63 1006.1
20260510015958 67 191 1.7 4.3 0.00 0.00 0.00 63 1006.0
20260510015058 67 191 1.7 4.3 0.00 0.00 0.00 63 1005.8
20260510014158 67 191 1.7 4.3 0.00 0.00 0.00 63 1005.7
20260510013258 67 191 1.7 4.3 0.00 0.00 0.00 63 1005.7
20260510012358 67 191 1.7 4.3 0.00 0.00 0.00 63 1005.6
20260510011458 67 191 1.7 4.3 0.00 0.00 0.00 63 1005.4
20260510010558 67 191 1.7 4.3 0.00 0.00 0.00 63 1005.2
20260510005658 67 191 1.7 4.3 0.00 0.00 0.00 63 1005.3
20260510004758 67 191 1.7 4.3 0.00 0.00 0.00 63 1005.2
20260510003858 67 191 1.7 4.3 0.00 0.00 0.00 63 1005.2
20260510002058 67 191 1.7 4.3 0.00 0.00 0.00 63 1005.1
20260510001158 67 191 1.7 4.3 0.00 0.00 0.00 63 1005.1
20260510000258 67 190 2.6 4.3 0.00 0.00 0.00 63 1004.9
20260509235358 68 176 3.5 7.0 0.00 0.00 0.00 61 1004.7
20260509234458 68 172 4.3 10.4 0.00 0.00 0.00 61 1004.5
20260509233558 68 169 4.3 10.4 0.00 0.00 0.00 60 1004.6
20260509232658 69 165 4.3 9.6 0.00 0.00 0.00 59 1004.6
20260509231758 69 171 4.3 10.4 0.00 0.00 0.00 58 1004.6
20260509230857 70 173 5.2 13.0 0.00 0.00 0.00 57 1004.5
20260509225958 70 169 4.3 9.6 0.00 0.00 0.00 56 1004.5
20260509225058 70 173 4.3 8.7 0.00 0.00 0.00 56 1004.5
20260509224157 70 168 5.2 10.4 0.00 0.00 0.00 56 1004.7
20260509223257 70 175 5.2 10.4 0.00 0.00 0.00 55 1004.8
20260509222358 71 171 5.2 10.4 0.00 0.00 0.00 54 1004.8
20260509221458 71 173 4.3 10.4 0.00 0.00 0.00 54 1004.8
20260509220558 71 173 5.2 12.2 0.00 0.00 0.00 53 1004.9
20260509215658 71 170 4.3 8.7 0.00 0.00 0.00 54 1004.9
20260509214758 71 168 3.5 7.8 0.00 0.00 0.00 54 1004.8
20260509213857 70 161 3.5 8.7 0.00 0.00 0.00 56 1004.8
20260509212958 70 158 3.5 9.6 0.00 0.00 0.00 58 1004.9
20260509212058 70 169 3.5 7.8 0.00 0.00 0.00 57 1005.1
20260509211157 70 179 3.5 8.7 0.00 0.00 0.00 58 1005.2
20260509210258 71 169 4.3 12.2 0.00 0.00 0.00 56 1005.1
20260509205357 71 158 4.3 10.4 0.00 0.00 0.00 56 1005.1
20260509204457 71 166 4.3 8.7 0.00 0.00 0.00 56 1005.2
20260509203557 71 160 4.3 8.7 0.00 0.00 0.00 57 1005.2
20260509202657 70 178 4.3 8.7 0.00 0.00 0.00 59 1005.3
20260509201757 70 187 3.5 8.7 0.00 0.00 0.00 59 1005.6
20260509200857 69 158 4.3 12.2 0.00 0.00 0.00 63 1005.6
20260509195058 70 165 3.5 9.6 0.00 0.00 0.00 61 1005.7
20260509194157 69 161 4.3 12.2 0.00 0.00 0.00 63 1005.7
20260509193258 69 163 3.5 7.8 0.00 0.00 0.00 65 1005.8
20260509192359 68 167 4.3 9.6 0.00 0.00 0.00 64 1005.9
20260509191457 68 170 3.5 8.7 0.00 0.00 0.00 66 1006.1
20260509190558 67 164 4.3 9.6 0.00 0.00 0.00 67 1006.2
20260509185657 66 175 3.5 7.8 0.00 0.00 0.00 68 1006.4
20260509184757 66 157 3.5 7.8 0.00 0.00 0.00 67 1006.4
20260509183857 66 156 2.6 6.1 0.00 0.00 0.00 70 1006.6
20260509182957 66 150 1.7 7.0 0.00 0.00 0.00 71 1006.8
20260509181157 65 156 1.7 5.2 0.00 0.00 0.00 76 1006.8
20260509180258 64 149 1.7 5.2 0.00 0.00 0.00 75 1006.7
20260509175358 64 165 1.7 5.2 0.00 0.00 0.00 75 1006.7
20260509173600 62 155 2.6 8.7 0.00 0.00 0.00 80 1006.9
20260509172658 62 161 2.6 8.7 0.00 0.00 0.00 80 1007.0
20260509171757 61 159 2.6 6.1 0.00 0.00 0.00 82 1006.9
20260509170857 60 161 2.6 7.0 0.00 0.00 0.00 83 1006.9
20260509165958 60 171 4.3 7.8 0.00 0.00 0.00 83 1007.0
20260509165058 60 175 4.3 9.6 0.00 0.00 0.00 84 1007.0
20260509164157 59 181 4.3 8.7 0.00 0.00 0.00 84 1006.9
20260509163257 59 179 3.5 7.8 0.00 0.00 0.00 87 1006.8
20260509162357 58 175 2.6 7.0 0.00 0.00 0.00 88 1006.7
20260509161457 58 177 0.9 8.7 0.00 0.00 0.00 88 1006.7
20260509160557 57 158 0.9 3.5 0.00 0.00 0.00 90 1006.5
20260509155657 57 175 0.9 4.3 0.00 0.00 0.00 90 1006.5
20260509152957 57 181 0.9 5.2 0.00 0.00 0.00 91 1006.2
20260509152058 56 169 1.7 6.1 0.00 0.00 0.00 91 1006.4
20260509151157 56 176 2.6 5.2 0.00 0.00 0.00 92 1006.4
20260509144457 73 159 1.7 4.3 0.00 0.00 0.00 51 1006.2
20260509143558 73 159 1.7 4.3 0.00 0.00 0.00 51 1006.4
20260509142657 73 159 1.7 4.3 0.00 0.00 0.00 51 1006.6
20260509141757 73 159 1.7 4.3 0.00 0.00 0.00 51 1006.7
20260509140858 73 159 1.7 4.3 0.00 0.00 0.00 51 1006.7
20260509134157 73 159 1.7 4.3 0.00 0.00 0.00 51 1007.0
20260509133257 73 159 1.7 4.3 0.00 0.00 0.00 51 1007.0
20260509132358 73 159 1.7 4.3 0.00 0.00 0.00 51 1007.1
20260509131457 73 159 1.7 4.3 0.00 0.00 0.00 51 1007.0
20260509130557 73 159 1.7 4.3 0.00 0.00 0.00 51 1006.9
20260509125657 73 159 1.7 4.3 0.00 0.00 0.00 51 1007.1
20260509124757 73 159 1.7 4.3 0.00 0.00 0.00 51 1007.1
20260509123857 73 159 1.7 4.3 0.00 0.00 0.00 51 1007.2
20260509122957 73 159 1.7 4.3 0.00 0.00 0.00 51 1007.3
20260509122057 73 159 1.7 4.3 0.00 0.00 0.00 51 1007.4
20260509120257 73 159 1.7 4.3 0.00 0.00 0.00 51 1007.4
20260509115357 73 159 1.7 4.3 0.00 0.00 0.00 51 1007.3
20260509113558 73 159 1.7 4.3 0.00 0.00 0.00 51 1007.2
20260509112658 73 159 1.7 4.3 0.00 0.00 0.00 51 1007.2
20260509111757 73 159 1.7 4.3 0.00 0.00 0.00 51 1007.1
20260509105957 73 159 1.7 4.3 0.00 0.00 0.00 51 1006.9
20260509105057 73 159 1.7 4.3 0.00 0.00 0.00 51 1006.8
20260509104157 73 159 1.7 4.3 0.00 0.00 0.00 51 1006.9
20260509103257 73 159 1.7 4.3 0.00 0.00 0.00 51 1006.9
20260509102357 73 159 1.7 4.3 0.00 0.00 0.00 51 1006.8
20260509100557 73 159 1.7 4.3 0.00 0.00 0.00 51 1006.8
20260509095657 73 159 1.7 4.3 0.00 0.00 0.00 51 1006.9
20260509094757 73 159 1.7 4.3 0.00 0.00 0.00 51 1006.9